createdAt,value
2023-05-05T00:01:39.377Z,14.76
2023-05-05T00:04:08.771Z,14.82
2023-05-05T00:06:36.887Z,14.75
2023-05-05T00:09:04.881Z,14.79
2023-05-05T00:11:32.936Z,14.73
2023-05-05T00:14:03.263Z,14.60
2023-05-05T00:16:31.323Z,14.87
2023-05-05T00:19:02.417Z,14.85
2023-05-05T00:21:31.830Z,14.68
2023-05-05T00:23:59.897Z,14.38
2023-05-05T00:26:27.867Z,14.50
2023-05-05T00:28:56.564Z,14.47
2023-05-05T00:31:24.699Z,14.42
2023-05-05T00:33:52.772Z,14.54
2023-05-05T00:36:22.844Z,14.09
2023-05-05T00:38:52.305Z,14.19
2023-05-05T00:41:20.343Z,13.98
2023-05-05T00:43:48.674Z,14.22
2023-05-05T00:46:23.388Z,14.07
2023-05-05T00:48:51.636Z,13.98
2023-05-05T00:51:22.769Z,13.95
2023-05-05T00:53:52.276Z,13.82
2023-05-05T00:56:21.937Z,13.78
2023-05-05T00:58:50.372Z,13.67
2023-05-05T01:01:18.908Z,13.99
2023-05-05T01:03:47.082Z,13.93
2023-05-05T01:06:23.925Z,13.78
2023-05-05T01:09:01.665Z,13.40
2023-05-05T01:11:33.487Z,13.53
2023-05-05T01:14:06.982Z,13.74
2023-05-05T01:16:35.524Z,13.71
2023-05-05T01:19:10.953Z,13.70
2023-05-05T01:21:41.233Z,13.69
2023-05-05T01:24:23.862Z,13.39
2023-05-05T01:26:56.219Z,13.32
2023-05-05T01:29:42.354Z,13.60
2023-05-05T01:32:12.821Z,13.40
2023-05-05T01:34:43.156Z,13.29
2023-05-05T01:37:14.090Z,13.51
2023-05-05T01:39:43.741Z,13.65
2023-05-05T01:42:13.916Z,13.19
2023-05-05T01:44:43.298Z,13.38
2023-05-05T01:47:14.215Z,13.25
2023-05-05T01:49:44.061Z,13.28
2023-05-05T01:52:12.849Z,13.37
2023-05-05T01:54:42.104Z,13.73
2023-05-05T01:57:11.233Z,13.28
2023-05-05T01:59:39.963Z,13.31
2023-05-05T02:02:09.493Z,13.07
2023-05-05T02:04:42.080Z,13.13
2023-05-05T02:07:11.804Z,13.24
2023-05-05T02:09:40.203Z,13.54
2023-05-05T02:12:09.178Z,13.55
2023-05-05T02:14:37.943Z,13.45
2023-05-05T02:17:06.127Z,13.49
2023-05-05T02:19:42.887Z,13.37
2023-05-05T02:22:15.361Z,13.34
2023-05-05T02:24:43.705Z,13.37
2023-05-05T02:27:12.652Z,13.50
2023-05-05T02:29:43.566Z,13.70
2023-05-05T02:32:15.426Z,13.51
2023-05-05T02:34:43.865Z,12.88
2023-05-05T02:37:21.012Z,13.09
2023-05-05T02:39:58.552Z,12.62
2023-05-05T02:42:30.168Z,12.56
2023-05-05T02:44:59.735Z,12.44
2023-05-05T02:47:36.101Z,12.43
2023-05-05T02:50:05.249Z,12.33
2023-05-05T02:52:36.163Z,12.38
2023-05-05T02:55:05.224Z,12.78
2023-05-05T02:57:39.182Z,12.63
2023-05-05T03:00:13.706Z,12.74
2023-05-05T03:02:46.009Z,12.79
2023-05-05T03:05:20.665Z,12.68
2023-05-05T03:07:55.848Z,12.67
2023-05-05T03:10:28.949Z,12.65
2023-05-05T03:13:00.776Z,12.73
2023-05-05T03:15:40.890Z,12.97
2023-05-05T03:18:11.552Z,12.92
2023-05-05T03:20:44.266Z,13.03
2023-05-05T03:23:18.349Z,13.28
2023-05-05T03:25:48.225Z,13.01
2023-05-05T03:28:26.351Z,13.13
2023-05-05T03:30:55.857Z,13.13
2023-05-05T03:33:24.024Z,13.18
2023-05-05T03:35:52.352Z,13.39
2023-05-05T03:38:21.724Z,13.45
2023-05-05T03:40:49.781Z,13.50
2023-05-05T03:43:21.561Z,13.61
2023-05-05T03:45:50.526Z,13.46
2023-05-05T03:48:18.762Z,13.51
2023-05-05T03:50:47.461Z,13.57
2023-05-05T03:53:17.035Z,13.53
2023-05-05T03:55:46.977Z,13.59
2023-05-05T03:58:15.099Z,13.54
2023-05-05T04:00:43.684Z,13.76
2023-05-05T04:03:12.466Z,13.77
2023-05-05T04:05:40.717Z,13.85
2023-05-05T04:08:08.892Z,13.84
2023-05-05T04:10:39.328Z,13.74
2023-05-05T04:13:09.387Z,14.00
2023-05-05T04:15:38.591Z,14.15
2023-05-05T04:18:07.110Z,14.04
2023-05-05T04:20:35.910Z,14.02
2023-05-05T04:23:06.258Z,14.14
2023-05-05T04:25:34.348Z,14.25
2023-05-05T04:28:02.906Z,14.43
2023-05-05T04:30:33.550Z,14.50
2023-05-05T04:33:01.835Z,14.75
2023-05-05T04:35:30.781Z,14.96
2023-05-05T04:37:59.360Z,15.36
2023-05-05T04:40:27.542Z,14.90
2023-05-05T04:42:57.041Z,15.03
2023-05-05T04:45:25.158Z,15.57
2023-05-05T04:47:54.513Z,15.51
2023-05-05T04:50:22.813Z,15.18
2023-05-05T04:52:52.664Z,15.32
2023-05-05T04:55:21.428Z,15.05
2023-05-05T04:57:49.452Z,15.53
2023-05-05T05:00:17.851Z,15.47
2023-05-05T05:02:46.053Z,15.67
2023-05-05T05:05:15.547Z,15.62
2023-05-05T05:07:43.600Z,15.64
2023-05-05T05:10:11.792Z,15.84
2023-05-05T05:12:39.881Z,16.06
2023-05-05T05:15:08.628Z,16.20
2023-05-05T05:17:36.657Z,15.60
2023-05-05T05:20:08.195Z,15.54
2023-05-05T05:22:39.219Z,15.69
2023-05-05T05:25:11.701Z,15.92
2023-05-05T05:27:41.645Z,16.57
2023-05-05T05:30:13.532Z,16.75
2023-05-05T05:32:41.957Z,17.07
2023-05-05T05:35:10.855Z,17.69
2023-05-05T05:37:40.398Z,19.03
2023-05-05T05:40:09.751Z,21.44
2023-05-05T05:42:40.016Z,22.99
2023-05-05T05:45:10.014Z,18.41
2023-05-05T05:47:40.932Z,18.05
2023-05-05T05:50:09.743Z,18.23
2023-05-05T05:52:42.414Z,18.36
2023-05-05T05:55:11.386Z,18.82
2023-05-05T05:57:40.713Z,18.63
2023-05-05T06:00:11.368Z,18.95
2023-05-05T06:02:45.901Z,18.80
2023-05-05T06:05:17.973Z,19.06
2023-05-05T06:07:48.998Z,19.10
2023-05-05T06:10:27.183Z,19.26
2023-05-05T06:13:01.298Z,21.88
2023-05-05T06:15:29.995Z,22.77
2023-05-05T06:17:58.398Z,26.41
2023-05-05T06:20:27.557Z,24.27
2023-05-05T06:22:57.385Z,24.06
2023-05-05T06:25:26.871Z,20.51
2023-05-05T06:27:54.950Z,20.56
2023-05-05T06:30:22.907Z,20.45
2023-05-05T06:32:50.982Z,20.23
2023-05-05T06:35:22.253Z,19.88
2023-05-05T06:37:50.341Z,19.95
2023-05-05T06:40:19.725Z,20.09
2023-05-05T06:42:47.776Z,20.10
2023-05-05T06:45:22.166Z,20.32
2023-05-05T06:47:50.231Z,20.13
2023-05-05T06:50:18.299Z,20.03
2023-05-05T06:52:46.356Z,20.00
2023-05-05T06:55:14.377Z,20.03
2023-05-05T06:57:43.757Z,20.17
2023-05-05T07:00:13.884Z,20.03
2023-05-05T07:02:42.102Z,19.78
2023-05-05T07:05:10.419Z,19.90
2023-05-05T07:07:38.877Z,20.14
2023-05-05T07:10:10.386Z,20.29
2023-05-05T07:12:38.696Z,20.32
2023-05-05T07:15:23.317Z,20.25
2023-05-05T07:17:55.281Z,20.39
2023-05-05T07:20:23.377Z,20.38
2023-05-05T07:22:51.460Z,20.36
2023-05-05T07:25:19.497Z,20.22
2023-05-05T07:27:47.527Z,19.71
2023-05-05T07:30:18.812Z,20.03
2023-05-05T07:32:47.601Z,19.76
2023-05-05T07:35:15.888Z,19.92
2023-05-05T07:37:44.927Z,19.72
2023-05-05T07:40:13.285Z,19.61
2023-05-05T07:42:41.381Z,19.87
2023-05-05T07:45:09.733Z,19.88
2023-05-05T07:47:40.545Z,19.98
2023-05-05T07:50:09.409Z,20.14
2023-05-05T07:52:48.370Z,20.06
2023-05-05T07:55:19.794Z,20.18
2023-05-05T07:57:48.248Z,20.29
2023-05-05T08:00:19.263Z,20.63
2023-05-05T08:02:51.092Z,20.38
2023-05-05T08:05:19.286Z,20.46
2023-05-05T08:07:49.462Z,20.46
2023-05-05T08:10:17.624Z,20.62
2023-05-05T08:12:45.709Z,20.75
2023-05-05T08:15:13.955Z,20.51
2023-05-05T08:17:46.694Z,20.71
2023-05-05T08:20:18.628Z,20.89
2023-05-05T08:22:46.839Z,20.81
2023-05-05T08:25:15.287Z,20.96
2023-05-05T08:27:44.011Z,20.89
2023-05-05T08:30:12.821Z,20.61
2023-05-05T08:32:43.377Z,21.31
2023-05-05T08:35:13.643Z,20.84
2023-05-05T08:37:43.242Z,21.50
2023-05-05T08:40:12.670Z,21.56
2023-05-05T08:42:44.546Z,21.22
2023-05-05T08:45:12.732Z,21.25
2023-05-05T08:47:42.027Z,21.48
2023-05-05T08:50:11.519Z,21.81
2023-05-05T08:52:41.196Z,21.52
2023-05-05T08:55:14.325Z,22.11
2023-05-05T08:57:45.041Z,21.96
2023-05-05T09:00:13.938Z,21.71
2023-05-05T09:02:43.903Z,22.10
2023-05-05T09:05:12.100Z,22.38
2023-05-05T09:07:41.248Z,22.56
2023-05-05T09:10:09.878Z,22.83
2023-05-05T09:12:41.228Z,22.20
2023-05-05T09:15:10.180Z,22.05
2023-05-05T09:17:38.818Z,22.13
2023-05-05T09:20:08.177Z,21.63
2023-05-05T09:22:37.590Z,21.93
2023-05-05T09:25:09.618Z,21.85
2023-05-05T09:27:42.259Z,21.98
2023-05-05T09:30:11.233Z,21.88
2023-05-05T09:32:46.764Z,21.88
2023-05-05T09:35:14.910Z,21.89
2023-05-05T09:37:43.254Z,21.67
2023-05-05T09:40:15.261Z,21.97
2023-05-05T09:42:47.252Z,22.06
2023-05-05T09:45:28.553Z,22.33
2023-05-05T09:48:00.602Z,22.24
2023-05-05T09:50:32.642Z,22.72
2023-05-05T09:53:02.121Z,22.33
2023-05-05T09:55:30.959Z,22.55
2023-05-05T09:58:16.404Z,22.13
2023-05-05T10:00:46.410Z,21.76
2023-05-05T10:03:14.665Z,21.88
2023-05-05T10:05:50.352Z,21.57
2023-05-05T10:08:19.201Z,21.28
2023-05-05T10:10:48.294Z,21.05
2023-05-05T10:13:16.656Z,20.92
2023-05-05T10:15:46.265Z,20.93
2023-05-05T10:18:15.589Z,20.82
2023-05-05T10:20:44.206Z,21.10
2023-05-05T10:23:15.234Z,21.36
2023-05-05T10:25:47.993Z,21.43
2023-05-05T10:28:22.113Z,21.35
2023-05-05T10:30:53.384Z,21.27
2023-05-05T10:35:56.732Z,21.66
2023-05-05T10:38:26.864Z,21.42
2023-05-05T10:40:58.681Z,21.44
2023-05-05T10:43:27.800Z,21.37
2023-05-05T10:45:57.507Z,21.42
2023-05-05T10:48:29.207Z,21.14
2023-05-05T10:51:00.338Z,21.05
2023-05-05T10:53:29.997Z,20.93
2023-05-05T10:56:04.414Z,21.54
2023-05-05T10:58:38.533Z,21.66
2023-05-05T11:01:30.806Z,21.65
2023-05-05T11:04:17.508Z,21.50
2023-05-05T11:07:06.871Z,22.24
2023-05-05T11:09:38.563Z,22.18
2023-05-05T11:12:07.244Z,22.33
2023-05-05T11:14:35.481Z,22.44
2023-05-05T11:17:04.831Z,22.35
2023-05-05T11:19:48.878Z,22.68
2023-05-05T11:22:17.608Z,23.01
2023-05-05T11:24:48.113Z,23.13
2023-05-05T11:27:16.114Z,22.80
2023-05-05T11:30:02.955Z,23.42
2023-05-05T11:32:33.613Z,23.75
2023-05-05T11:35:06.141Z,23.54
2023-05-05T11:37:34.696Z,24.04
2023-05-05T11:40:13.591Z,23.79
2023-05-05T11:42:41.741Z,23.64
2023-05-05T11:45:23.147Z,23.81
2023-05-05T11:47:52.612Z,24.25
2023-05-05T11:50:22.876Z,23.69
2023-05-05T11:52:50.961Z,23.90
2023-05-05T11:55:27.548Z,23.02
2023-05-05T11:57:58.320Z,24.34
2023-05-05T12:00:35.451Z,24.11
2023-05-05T12:03:05.420Z,24.55
2023-05-05T12:05:36.312Z,24.53
2023-05-05T12:08:05.062Z,23.89
2023-05-05T12:10:33.209Z,24.05
2023-05-05T12:13:01.324Z,23.40
2023-05-05T12:15:30.219Z,22.90
2023-05-05T12:18:00.066Z,23.48
2023-05-05T12:20:36.453Z,23.64
2023-05-05T12:23:04.845Z,23.87
2023-05-05T12:25:36.957Z,23.06
2023-05-05T12:28:06.140Z,23.37
2023-05-05T12:30:34.540Z,23.22
2023-05-05T12:33:03.567Z,22.68
2023-05-05T12:35:32.036Z,22.66
2023-05-05T12:38:01.386Z,23.41
2023-05-05T12:40:45.635Z,23.13
2023-05-05T12:43:32.601Z,22.95
2023-05-05T12:46:06.844Z,22.03
2023-05-05T12:48:38.962Z,23.26
2023-05-05T12:51:14.392Z,22.47
2023-05-05T12:53:43.855Z,22.37
2023-05-05T12:56:30.850Z,22.76
2023-05-05T12:58:59.024Z,22.49
2023-05-05T13:01:27.077Z,22.54
2023-05-05T13:04:08.428Z,22.54
2023-05-05T13:06:37.603Z,23.41
2023-05-05T13:09:07.397Z,23.42
2023-05-05T13:11:35.892Z,23.12
2023-05-05T13:14:04.357Z,23.22
2023-05-05T13:16:32.389Z,23.46
2023-05-05T13:19:00.398Z,22.20
2023-05-05T13:21:28.675Z,22.93
2023-05-05T13:24:08.203Z,23.74
2023-05-05T13:26:46.131Z,22.80
2023-05-05T13:29:14.230Z,22.97
2023-05-05T13:31:42.408Z,23.20
2023-05-05T13:34:12.971Z,23.69
2023-05-05T13:36:41.054Z,22.05
2023-05-05T13:39:12.434Z,22.31
2023-05-05T13:41:40.785Z,22.09
2023-05-05T13:44:13.582Z,21.81
2023-05-05T13:46:41.872Z,22.27
2023-05-05T13:49:10.054Z,22.36
2023-05-05T13:51:39.046Z,21.95
2023-05-05T13:54:07.234Z,23.02
2023-05-05T13:56:35.607Z,22.58
2023-05-05T13:59:03.690Z,23.15
2023-05-05T14:01:33.132Z,23.36
2023-05-05T14:04:04.494Z,22.98
2023-05-05T14:06:33.853Z,22.10
2023-05-05T14:09:05.580Z,22.62
2023-05-05T14:11:36.077Z,22.29
2023-05-05T14:14:04.112Z,23.41
2023-05-05T14:16:33.648Z,23.87
2023-05-05T14:19:01.738Z,23.42
2023-05-05T14:21:29.757Z,22.65
2023-05-05T14:23:57.845Z,23.04
2023-05-05T14:26:26.287Z,23.24
2023-05-05T14:28:54.524Z,23.22
2023-05-05T14:31:22.617Z,22.23
2023-05-05T14:33:53.356Z,22.92
2023-05-05T14:36:24.185Z,22.85
2023-05-05T14:38:52.365Z,22.98
2023-05-05T14:41:20.532Z,23.22
2023-05-05T14:43:48.601Z,22.68
2023-05-05T14:46:18.610Z,22.60
2023-05-05T14:48:47.356Z,23.12
2023-05-05T14:51:16.845Z,22.67
2023-05-05T14:53:44.924Z,22.07
2023-05-05T14:56:13.073Z,22.14
2023-05-05T14:58:41.242Z,22.05
2023-05-05T15:01:09.457Z,22.24
2023-05-05T15:03:37.684Z,22.76
2023-05-05T15:06:05.901Z,22.69
2023-05-05T15:08:35.281Z,22.87
2023-05-05T15:11:04.173Z,22.92
2023-05-05T15:13:32.258Z,22.45
2023-05-05T15:16:00.822Z,22.28
2023-05-05T15:18:28.987Z,22.08
2023-05-05T15:20:57.025Z,22.14
2023-05-05T15:23:27.406Z,22.15
2023-05-05T15:25:56.755Z,21.84
2023-05-05T15:28:24.790Z,21.51
2023-05-05T15:30:52.839Z,21.50
2023-05-05T15:33:20.963Z,21.61
2023-05-05T15:35:48.989Z,21.82
2023-05-05T15:38:17.063Z,21.63
2023-05-05T15:40:46.708Z,21.30
2023-05-05T15:43:17.729Z,21.11
2023-05-05T15:45:45.920Z,20.98
2023-05-05T15:48:14.012Z,20.87
2023-05-05T15:50:42.045Z,20.63
2023-05-05T15:53:12.436Z,20.49
2023-05-05T15:55:40.678Z,20.46
2023-05-05T15:58:08.699Z,20.34
2023-05-05T16:00:38.179Z,20.05
2023-05-05T16:03:06.496Z,19.81
2023-05-05T16:05:36.707Z,19.75
2023-05-05T16:08:09.658Z,19.56
2023-05-05T16:10:37.702Z,19.23
2023-05-05T16:13:05.929Z,18.90
2023-05-05T16:15:35.241Z,18.39
2023-05-05T16:18:07.235Z,17.93
2023-05-05T16:20:35.265Z,17.07
2023-05-05T16:23:03.315Z,15.77
2023-05-05T16:25:31.567Z,16.95
2023-05-05T16:28:01.532Z,-143.11
2023-05-05T16:30:30.196Z,-143.11
2023-05-05T16:33:00.815Z,-143.11
2023-05-05T16:35:30.637Z,-143.11
2023-05-05T16:37:59.050Z,-143.11
2023-05-05T16:40:29.682Z,-143.11
2023-05-05T16:42:59.059Z,-143.11
2023-05-05T16:45:27.417Z,-143.11
2023-05-05T16:47:56.180Z,-143.11
2023-05-05T16:50:24.686Z,-143.11
2023-05-05T16:52:54.540Z,-143.11
2023-05-05T16:55:23.266Z,-143.11
2023-05-05T16:57:51.553Z,-143.11
2023-05-05T17:00:20.049Z,-143.11
2023-05-05T17:02:48.452Z,-143.11
2023-05-05T17:05:17.423Z,-143.11
2023-05-05T17:07:45.920Z,-143.11
2023-05-05T17:10:15.658Z,-143.11
2023-05-05T17:12:46.008Z,-143.11
2023-05-05T17:15:14.423Z,-143.11
2023-05-05T17:17:43.328Z,-143.11
2023-05-05T17:20:12.668Z,-143.11
2023-05-05T17:22:41.064Z,-143.11
2023-05-05T17:25:10.692Z,-143.11
2023-05-05T17:27:40.612Z,-143.11
2023-05-05T17:30:10.135Z,-143.11
2023-05-05T17:32:38.663Z,-143.11
2023-05-05T17:35:11.173Z,-143.11
2023-05-05T17:37:39.709Z,-143.11
2023-05-05T17:40:09.249Z,-143.11
2023-05-05T17:42:38.189Z,-143.11
2023-05-05T17:45:09.360Z,-143.11
2023-05-05T17:47:37.970Z,-143.11
2023-05-05T17:50:10.933Z,-143.11
2023-05-05T17:52:40.356Z,-143.11
2023-05-05T17:55:09.774Z,-143.11
2023-05-05T17:57:38.388Z,-143.11
2023-05-05T18:00:10.041Z,-143.11
2023-05-05T18:02:41.532Z,-143.11
2023-05-05T18:05:10.830Z,-143.11
2023-05-05T18:07:39.579Z,-143.11
2023-05-05T18:10:10.575Z,-143.11
2023-05-05T18:12:38.950Z,-143.11
2023-05-05T18:15:09.963Z,-143.11
2023-05-05T18:17:38.727Z,-143.11
2023-05-05T18:20:08.318Z,-143.11
2023-05-05T18:22:37.123Z,-143.11
2023-05-05T18:25:07.986Z,-143.11
2023-05-05T18:27:37.354Z,-143.11
2023-05-05T18:30:08.702Z,-143.11
2023-05-05T18:32:37.480Z,-143.11
2023-05-05T18:35:06.852Z,-143.11
2023-05-05T18:37:35.367Z,-143.11
2023-05-05T18:40:03.638Z,-143.11
2023-05-05T18:42:31.991Z,-143.11
2023-05-05T18:45:00.315Z,-143.11
2023-05-05T18:47:29.934Z,-143.11
2023-05-05T18:49:58.271Z,-143.11
2023-05-05T18:52:27.383Z,-143.11
2023-05-05T18:54:55.912Z,-143.11
2023-05-05T18:57:24.245Z,-143.11
2023-05-05T18:59:52.641Z,-143.11
2023-05-05T19:02:21.023Z,-143.11
2023-05-05T19:04:50.755Z,-143.11
2023-05-05T19:07:33.851Z,-143.11
2023-05-05T19:10:04.679Z,-143.11
2023-05-05T19:12:33.075Z,-143.11
2023-05-05T19:15:01.447Z,-143.11
2023-05-05T19:17:29.748Z,-143.11
2023-05-05T19:19:59.523Z,-143.11
2023-05-05T19:22:27.910Z,-143.11
2023-05-05T19:24:56.200Z,-143.11
2023-05-05T19:27:24.588Z,-143.11
2023-05-05T19:29:53.342Z,-143.11
2023-05-05T19:32:22.724Z,-143.11
2023-05-05T19:34:54.123Z,-143.11
2023-05-05T19:37:23.826Z,-143.11
2023-05-05T19:39:55.270Z,-143.11
2023-05-05T19:42:23.584Z,-143.11
2023-05-05T19:44:51.946Z,-143.11
2023-05-05T19:47:20.708Z,-143.11
2023-05-05T19:49:48.953Z,-143.11
2023-05-05T19:52:17.264Z,-143.11
2023-05-05T19:54:46.917Z,-143.11
2023-05-05T19:57:15.224Z,-143.11
2023-05-05T19:59:43.573Z,-143.11
2023-05-05T20:02:12.279Z,-143.11
2023-05-05T20:04:40.579Z,-143.11
2023-05-05T20:07:08.887Z,-143.11
2023-05-05T20:09:37.797Z,-143.11
2023-05-05T20:12:08.394Z,-143.11
2023-05-05T20:14:36.787Z,-143.11
2023-05-05T20:17:05.059Z,-143.11
2023-05-05T20:19:33.440Z,-143.11
2023-05-05T20:22:01.744Z,-143.11
2023-05-05T20:24:30.289Z,-143.11
2023-05-05T20:26:58.628Z,-143.11
2023-05-05T20:29:28.283Z,-143.11
2023-05-05T20:31:59.102Z,-143.11
2023-05-05T20:34:27.719Z,-143.11
2023-05-05T20:36:56.574Z,-143.11
2023-05-05T20:39:25.070Z,-143.11
2023-05-05T20:41:53.362Z,-143.11
2023-05-05T20:44:21.720Z,-143.11
2023-05-05T20:46:51.608Z,-143.11
2023-05-05T20:49:20.071Z,-143.11
2023-05-05T20:51:48.376Z,-143.11
2023-05-05T20:54:16.671Z,-143.11
2023-05-05T20:56:44.994Z,-143.11
2023-05-05T20:59:16.380Z,-143.11
2023-05-05T21:01:44.972Z,-143.11
2023-05-05T21:04:14.673Z,-143.11
2023-05-05T21:06:42.969Z,-143.11
2023-05-05T21:09:11.609Z,-143.11
2023-05-05T21:11:39.987Z,-143.11
2023-05-05T21:14:11.576Z,-143.11
2023-05-05T21:16:40.160Z,-143.11
2023-05-05T21:19:08.572Z,-143.11
2023-05-05T21:21:38.269Z,-143.11
2023-05-05T21:24:08.157Z,-143.11
2023-05-05T21:26:36.973Z,-143.11
2023-05-05T21:29:05.440Z,-143.11
2023-05-05T21:31:33.845Z,-143.11
2023-05-05T21:34:02.327Z,-143.11
2023-05-05T21:36:33.580Z,-143.11
2023-05-05T21:39:03.235Z,-143.11
2023-05-05T21:41:31.578Z,-143.11
2023-05-05T21:43:59.937Z,-143.11
2023-05-05T21:46:28.311Z,-143.11
2023-05-05T21:48:59.035Z,-143.11
2023-05-05T21:51:27.287Z,-143.11
2023-05-05T21:53:55.936Z,-143.11
2023-05-05T21:56:25.658Z,-143.11
2023-05-05T21:58:56.397Z,-143.11
2023-05-05T22:02:36.592Z,15.79
2023-05-05T22:05:05.796Z,16.26
2023-05-05T22:07:36.140Z,15.81
2023-05-05T22:10:04.592Z,15.78
2023-05-05T22:12:32.999Z,15.91
2023-05-05T22:15:01.371Z,15.73
2023-05-05T22:17:29.767Z,15.95
2023-05-05T22:19:59.676Z,15.87
2023-05-05T22:22:27.981Z,16.29
2023-05-05T22:24:58.527Z,15.80
2023-05-05T22:27:26.896Z,15.68
2023-05-05T22:29:57.642Z,15.88
2023-05-05T22:32:25.999Z,15.77
2023-05-05T22:34:54.325Z,16.00
2023-05-05T22:37:26.665Z,16.03
2023-05-05T22:39:54.976Z,16.12
2023-05-05T22:42:23.297Z,16.05
2023-05-05T22:44:51.581Z,16.12
2023-05-05T22:47:19.890Z,15.88
2023-05-05T22:49:48.311Z,15.92
2023-05-05T22:52:18.897Z,15.92
2023-05-05T22:54:48.518Z,15.59
2023-05-05T22:57:18.898Z,15.66
2023-05-05T22:59:49.478Z,15.79
2023-05-05T23:02:19.859Z,15.69
2023-05-05T23:04:48.258Z,15.46
2023-05-05T23:07:16.642Z,15.69
2023-05-05T23:09:44.935Z,15.44
2023-05-05T23:12:14.762Z,15.38
2023-05-05T23:14:43.088Z,15.02
2023-05-05T23:17:11.775Z,15.29
2023-05-05T23:19:40.472Z,15.34
2023-05-05T23:22:08.801Z,15.01
2023-05-05T23:24:37.237Z,15.19
2023-05-05T23:27:07.936Z,14.88
2023-05-05T23:29:37.771Z,15.14
2023-05-05T23:32:06.623Z,14.78
2023-05-05T23:34:34.871Z,14.98
2023-05-05T23:37:05.273Z,14.88
2023-05-05T23:39:34.720Z,14.88
2023-05-05T23:42:03.105Z,14.78
2023-05-05T23:44:31.390Z,14.91
2023-05-05T23:47:01.042Z,14.40
2023-05-05T23:49:29.357Z,14.68
2023-05-05T23:51:58.437Z,14.72
2023-05-05T23:54:26.731Z,14.64
2023-05-05T23:56:55.384Z,14.45
2023-05-05T23:59:23.673Z,14.60
